Pagrindinis puslapis
METAR-TAF:

METAR-TAF

Oro uostai :

Kristianstadas, Švedija

platuma: 55-55N, ilguma: 014-05E, Aukštis: 23 m

Dabartinis oras

Ataskaita buvo paskelbta 30 minutes, ne 01:50 UTC
Vėjas 2 kt nuo kintamojo kryptimis
Temperatūra 12°C
Drėgmė 100%
Slėgis 1025 hPa
Matomumas: 0300 m
rūkana

METAR: ESMK 240150Z AUTO VRB02KT 0300 R01/1800N R19/P2000N BR NCD 12/12 Q1025

Laikas: 04:20 (02:20 UTC)

Prognozė

Ataskaita buvo paskelbta 12 valandos ir 18 minutes, ne 14:02 UTC
Prognozė galioja nuo 23 metu 15 UTC su 23 metu 17 UTC
Vėjas 10 kt iš Vakarų
Matomumas 10 km arba daugiau
nėra debesų žemiau 1500 m ir nėra kamuolinių lietaus debesų

TAF: ESMK 231402Z 2315/2317 26010KT CAVOK

Orai ataskaitas ir orų prognozės (METAR, TAF).

turimą stotys yra geltonos ir raudonos taškus žemėlapyje.

Perkelti pele per norėdami pamatyti stoties vardą.

Tada spustelėkite, norėdami matyti oro stebėjimo ir prognozės.

Norėdami pakeisti žemėlapį: spustelėkite ant žalios mygtukų su juodo kryžiaus žemyn,; žalią mygtuką su brūkšneliu, jei norite nutolinti; arba žalių rodyklių gretimoms žemėlapius.


METAR-TAF: